首页
METAR-TAF:

METAR-TAF

机场 :

格罗兹尼, 俄罗斯

纬度: 43-23-18N, 经度: 045-41-59E, 海拔: 167米

当前天气观测

该预报发布于17分钟前的09:30 UTC
风速10节,风向东南,在东转东南之间变化
温度 27°C
湿度 42%
气压 1007 hPa
能见度10公里或以上
1500米以下无云,无积雨云

METAR: URMG 010930Z 14005MPS 110V170 CAVOK 27/13 Q1007 R08/090070 NOSIG RMK QFE741/0988

时间: 12:47 (09:47 UTC)

预报

该预报发布于1小时和47分钟前的08:00 UTC
预报有效从01日的 09点(UTC)到 01日的 18点(UTC)
风速10节,风向东南,有时为23节阵风
能见度10公里或以上
散云层高于3000英尺

TAF: URMG 010800Z 0109/0118 13005G12MPS 9999 SCT030

超过4000个机场的气象观测和天气预报(METAR&TAF报告)。

可查询的气象台以黄色和红色小点在地图上表示。

将鼠标移到小点上方,可查看气象台名称。

然后点击查看天气观测和预报。

如需切换地图:点击带黑十字的绿色按钮放大地图;点击带横线的绿色按钮缩小地图;或者点击绿色箭头查看邻近地区的地图。


METAR-TAF: